Seneca, SC

3:16 PM EDT on July 29, 2015 (GMT -0400)
KE4OGG-Seneca | | Change Station
CLOSE
Current Station
Personal Weather Station
Location: Seneca, SC
Elevation: 958 ft
Nearby Weather Stations

Elev 958 ft 34.68 °N, 82.95 °W | Updated 27 seconds ago

Clear
Clear
96.6 °F
Feels Like 114 °F
N
2.2
Wind Variable Wind from NW
Gusts 2.2 mph

Today
High -- | Low -- °F
--% Chance of Precip.
Yesterday
High -- | Low -- °F
Precip. -- in
6:39 AM 8:36 PM
Waxing Gibbous, 96% visible
Pressure 29.95 in
Visibility 10.0 miles
Clouds Scattered Clouds 4200 ft
Mostly Cloudy 6000 ft
Heat Index 114 °F
Dew Point 78 °F
Humidity 56%
Rainfall 0.00 in
Snow Depth Not available.
UV 6 out of 12
Pollen 3.40 out of 12
Air Quality Not available.
Flu Activity Not available.
METAR KCEU 291854Z AUTO 00000KT 10SM SCT042 BKN060 33/22 A2998 RMK AO2 SLP140 T03330217

More Conditions Fewer Conditions

Pressure 29.95 in
Visibility 10.0 miles
Clouds Scattered Clouds 4200 ft
Mostly Cloudy 6000 ft
Heat Index 114 °F
Dew Point 78 °F
Humidity 56%
Rainfall 0.00 in
Snow Depth Not available.
UV 6 out of 12
Pollen 3.40 out of 12
Air Quality Not available.
Flu Activity Not available.
METAR KCEU 291854Z AUTO 00000KT 10SM SCT042 BKN060 33/22 A2998 RMK AO2 SLP140 T03330217

More Conditions Fewer Conditions

10-Day Weather Forecast

×

Almanac

Astronomy

Jul. 29, 2015 Rise Set
Actual Time
Civil Twilight
Nautical Twilight
Astronomical Twilight
Moon
Length of Visible Light
Length of Day
Tomorrow will be .
, % of the Moon is Illuminated

Today's Extremes

State Highs State Lows

Community

WunderPhotos

Upload Photos

1,842,152 photos uploaded!

WunderBlogs® & News

Nearby

Air Quality

  Air Quality AQ Index Pollutant
Not available.

Snow Depth

Station Depth Elevation

Earthquake Activity

City Distance Mag. Time & Date
Minimum magnitude displayed is 2.5.

Coastal Water Temperatures

Place Temperature

Stations

Nearby Weather Stations

Station Location Temp. Windchill Dew Point Humidity Wind Precip. Elev Updated Type